sensor_id;sensor_type;location;lat;lon;timestamp;P1;durP1;ratioP1;P2;durP2;ratioP2
38935;SDS011;66589;47.458;9.644;2023-04-24T03:02:04;0.20;;;0.00;;
38935;SDS011;66589;47.458;9.644;2023-04-24T03:04:30;0.20;;;0.00;;
38935;SDS011;66589;47.458;9.644;2023-04-24T03:06:57;0.30;;;0.00;;
38935;SDS011;66589;47.458;9.644;2023-04-24T03:09:22;1.42;;;0.00;;
38935;SDS011;66589;47.458;9.644;2023-04-24T03:11:48;0.20;;;0.00;;
38935;SDS011;66589;47.458;9.644;2023-04-24T03:14:14;0.75;;;0.00;;
38935;SDS011;66589;47.458;9.644;2023-04-24T03:16:40;0.30;;;0.00;;
38935;SDS011;66589;47.458;9.644;2023-04-24T03:19:06;0.17;;;0.00;;
38935;SDS011;66589;47.458;9.644;2023-04-24T03:21:32;0.20;;;0.00;;
38935;SDS011;66589;47.458;9.644;2023-04-24T03:23:58;0.80;;;0.00;;
38935;SDS011;66589;47.458;9.644;2023-04-24T03:26:24;0.52;;;0.00;;
38935;SDS011;66589;47.458;9.644;2023-04-24T03:28:50;0.63;;;0.00;;
38935;SDS011;66589;47.458;9.644;2023-04-24T03:31:15;0.70;;;0.00;;
38935;SDS011;66589;47.458;9.644;2023-04-24T03:33:41;1.17;;;0.00;;
38935;SDS011;66589;47.458;9.644;2023-04-24T03:36:07;0.15;;;0.00;;
38935;SDS011;66589;47.458;9.644;2023-04-24T03:38:33;0.28;;;0.00;;
38935;SDS011;66589;47.458;9.644;2023-04-24T03:40:59;0.40;;;0.00;;
38935;SDS011;66589;47.458;9.644;2023-04-24T03:43:24;0.25;;;0.00;;
38935;SDS011;66589;47.458;9.644;2023-04-24T03:45:52;0.20;;;0.00;;
38935;SDS011;66589;47.458;9.644;2023-04-24T03:48:18;0.38;;;0.00;;
38935;SDS011;66589;47.458;9.644;2023-04-24T03:50:43;1.40;;;0.00;;
38935;SDS011;66589;47.458;9.644;2023-04-24T03:53:09;1.27;;;0.00;;
38935;SDS011;66589;47.458;9.644;2023-04-24T03:55:35;0.20;;;0.00;;
38935;SDS011;66589;47.458;9.644;2023-04-24T03:58:01;0.10;;;0.00;;
38935;SDS011;66589;47.458;9.644;2023-04-24T04:00:26;0.75;;;0.00;;
38935;SDS011;66589;47.458;9.644;2023-04-24T04:02:52;0.13;;;0.00;;
38935;SDS011;66589;47.458;9.644;2023-04-24T04:05:18;0.20;;;0.00;;
38935;SDS011;66589;47.458;9.644;2023-04-24T04:07:44;0.55;;;0.00;;
38935;SDS011;66589;47.458;9.644;2023-04-24T04:10:10;0.20;;;0.00;;
38935;SDS011;66589;47.458;9.644;2023-04-24T04:12:35;0.30;;;0.00;;
38935;SDS011;66589;47.458;9.644;2023-04-24T04:15:01;0.70;;;0.00;;
38935;SDS011;66589;47.458;9.644;2023-04-24T04:17:27;0.30;;;0.00;;
38935;SDS011;66589;47.458;9.644;2023-04-24T04:19:53;1.65;;;0.00;;
38935;SDS011;66589;47.458;9.644;2023-04-24T04:22:18;0.08;;;0.00;;
38935;SDS011;66589;47.458;9.644;2023-04-24T04:24:44;0.50;;;0.00;;
38935;SDS011;66589;47.458;9.644;2023-04-24T04:27:11;0.50;;;0.00;;
38935;SDS011;66589;47.458;9.644;2023-04-24T04:29:37;0.20;;;0.00;;
38935;SDS011;66589;47.458;9.644;2023-04-24T04:32:03;0.85;;;0.10;;
38935;SDS011;66589;47.458;9.644;2023-04-24T04:34:29;0.17;;;0.00;;
38935;SDS011;66589;47.458;9.644;2023-04-24T04:36:56;0.60;;;0.00;;
38935;SDS011;66589;47.458;9.644;2023-04-24T04:39:24;0.75;;;0.00;;
38935;SDS011;66589;47.458;9.644;2023-04-24T04:41:50;0.15;;;0.00;;
38935;SDS011;66589;47.458;9.644;2023-04-24T04:44:16;0.10;;;0.00;;
38935;SDS011;66589;47.458;9.644;2023-04-24T04:46:42;0.10;;;0.00;;
38935;SDS011;66589;47.458;9.644;2023-04-24T04:49:07;0.10;;;0.00;;
38935;SDS011;66589;47.458;9.644;2023-04-24T04:51:34;0.47;;;0.00;;
38935;SDS011;66589;47.458;9.644;2023-04-24T04:53:59;0.20;;;0.00;;
38935;SDS011;66589;47.458;9.644;2023-04-24T04:56:25;0.15;;;0.00;;
38935;SDS011;66589;47.458;9.644;2023-04-24T04:58:51;0.05;;;0.00;;
38935;SDS011;66589;47.458;9.644;2023-04-24T05:01:17;2.60;;;0.00;;
38935;SDS011;66589;47.458;9.644;2023-04-24T05:03:42;0.00;;;0.00;;
38935;SDS011;66589;47.458;9.644;2023-04-24T05:06:08;0.47;;;0.00;;
38935;SDS011;66589;47.458;9.644;2023-04-24T05:08:34;0.30;;;0.00;;
38935;SDS011;66589;47.458;9.644;2023-04-24T05:10:59;0.10;;;0.00;;
38935;SDS011;66589;47.458;9.644;2023-04-24T05:13:25;0.03;;;0.00;;
38935;SDS011;66589;47.458;9.644;2023-04-24T05:15:51;0.73;;;0.00;;
38935;SDS011;66589;47.458;9.644;2023-04-24T05:18:17;0.13;;;0.00;;
38935;SDS011;66589;47.458;9.644;2023-04-24T05:20:43;1.92;;;0.00;;
38935;SDS011;66589;47.458;9.644;2023-04-24T05:23:09;0.32;;;0.00;;
38935;SDS011;66589;47.458;9.644;2023-04-24T05:25:35;0.13;;;0.10;;
38935;SDS011;66589;47.458;9.644;2023-04-24T05:28:01;0.00;;;0.00;;
38935;SDS011;66589;47.458;9.644;2023-04-24T05:30:27;0.28;;;0.00;;
38935;SDS011;66589;47.458;9.644;2023-04-24T05:32:53;0.52;;;0.00;;
38935;SDS011;66589;47.458;9.644;2023-04-24T05:35:19;0.68;;;0.00;;
38935;SDS011;66589;47.458;9.644;2023-04-24T05:37:45;0.47;;;0.00;;
38935;SDS011;66589;47.458;9.644;2023-04-24T05:40:11;0.70;;;0.00;;
38935;SDS011;66589;47.458;9.644;2023-04-24T05:42:37;0.20;;;0.00;;
38935;SDS011;66589;47.458;9.644;2023-04-24T05:45:03;0.10;;;0.00;;
38935;SDS011;66589;47.458;9.644;2023-04-24T05:47:29;0.73;;;0.00;;
38935;SDS011;66589;47.458;9.644;2023-04-24T05:49:55;1.08;;;0.00;;
38935;SDS011;66589;47.458;9.644;2023-04-24T05:52:20;0.63;;;0.00;;
38935;SDS011;66589;47.458;9.644;2023-04-24T05:54:46;0.40;;;0.00;;
38935;SDS011;66589;47.458;9.644;2023-04-24T05:57:12;0.30;;;0.00;;
38935;SDS011;66589;47.458;9.644;2023-04-24T05:59:38;1.23;;;0.10;;
38935;SDS011;66589;47.458;9.644;2023-04-24T06:02:03;1.13;;;0.20;;
38935;SDS011;66589;47.458;9.644;2023-04-24T06:04:29;0.52;;;0.10;;
38935;SDS011;66589;47.458;9.644;2023-04-24T06:06:55;1.45;;;0.00;;
38935;SDS011;66589;47.458;9.644;2023-04-24T06:09:24;0.30;;;0.00;;
38935;SDS011;66589;47.458;9.644;2023-04-24T06:11:50;0.30;;;0.00;;
38935;SDS011;66589;47.458;9.644;2023-04-24T06:14:19;0.20;;;0.00;;
38935;SDS011;66589;47.458;9.644;2023-04-24T06:16:45;0.45;;;0.00;;
38935;SDS011;66589;47.458;9.644;2023-04-24T06:19:11;0.40;;;0.00;;
38935;SDS011;66589;47.458;9.644;2023-04-24T06:21:36;1.60;;;0.30;;
38935;SDS011;66589;47.458;9.644;2023-04-24T06:24:02;1.02;;;0.10;;
38935;SDS011;66589;47.458;9.644;2023-04-24T06:26:29;0.30;;;0.00;;
38935;SDS011;66589;47.458;9.644;2023-04-24T06:28:55;0.52;;;0.00;;
38935;SDS011;66589;47.458;9.644;2023-04-24T06:31:21;0.30;;;0.00;;
38935;SDS011;66589;47.458;9.644;2023-04-24T06:33:47;0.52;;;0.08;;
38935;SDS011;66589;47.458;9.644;2023-04-24T06:36:14;0.55;;;0.00;;
38935;SDS011;66589;47.458;9.644;2023-04-24T06:38:39;0.30;;;0.00;;
38935;SDS011;66589;47.458;9.644;2023-04-24T06:41:05;1.60;;;0.08;;
38935;SDS011;66589;47.458;9.644;2023-04-24T06:43:31;1.30;;;0.10;;
38935;SDS011;66589;47.458;9.644;2023-04-24T06:45:57;2.08;;;0.10;;
38935;SDS011;66589;47.458;9.644;2023-04-24T06:48:24;1.33;;;0.10;;
38935;SDS011;66589;47.458;9.644;2023-04-24T06:50:50;1.08;;;0.10;;
38935;SDS011;66589;47.458;9.644;2023-04-24T06:53:16;0.93;;;0.10;;
38935;SDS011;66589;47.458;9.644;2023-04-24T06:55:42;1.27;;;0.15;;
38935;SDS011;66589;47.458;9.644;2023-04-24T06:58:11;0.77;;;0.13;;
38935;SDS011;66589;47.458;9.644;2023-04-24T07:00:37;1.30;;;0.10;;
38935;SDS011;66589;47.458;9.644;2023-04-24T07:03:03;2.38;;;0.28;;
38935;SDS011;66589;47.458;9.644;2023-04-24T07:05:32;0.88;;;0.10;;
38935;SDS011;66589;47.458;9.644;2023-04-24T07:08:00;0.40;;;0.10;;
38935;SDS011;66589;47.458;9.644;2023-04-24T07:10:26;1.10;;;0.10;;
38935;SDS011;66589;47.458;9.644;2023-04-24T07:12:53;0.80;;;0.10;;
38935;SDS011;66589;47.458;9.644;2023-04-24T07:15:21;1.75;;;0.10;;
38935;SDS011;66589;47.458;9.644;2023-04-24T07:17:47;1.15;;;0.40;;
38935;SDS011;66589;47.458;9.644;2023-04-24T07:20:12;1.38;;;0.13;;
38935;SDS011;66589;47.458;9.644;2023-04-24T07:22:39;0.88;;;0.00;;
38935;SDS011;66589;47.458;9.644;2023-04-24T07:25:05;0.40;;;0.10;;
38935;SDS011;66589;47.458;9.644;2023-04-24T07:27:32;1.15;;;0.10;;
38935;SDS011;66589;47.458;9.644;2023-04-24T07:29:58;0.43;;;0.00;;
38935;SDS011;66589;47.458;9.644;2023-04-24T07:32:23;1.05;;;0.10;;
38935;SDS011;66589;47.458;9.644;2023-04-24T07:34:49;1.85;;;0.20;;
38935;SDS011;66589;47.458;9.644;2023-04-24T07:37:15;0.60;;;0.10;;
38935;SDS011;66589;47.458;9.644;2023-04-24T07:39:40;0.57;;;0.08;;
38935;SDS011;66589;47.458;9.644;2023-04-24T07:42:06;1.83;;;0.20;;
38935;SDS011;66589;47.458;9.644;2023-04-24T07:44:32;1.00;;;0.15;;
38935;SDS011;66589;47.458;9.644;2023-04-24T07:46:57;1.13;;;0.10;;
38935;SDS011;66589;47.458;9.644;2023-04-24T07:49:23;0.60;;;0.10;;
38935;SDS011;66589;47.458;9.644;2023-04-24T07:51:49;1.10;;;0.00;;
38935;SDS011;66589;47.458;9.644;2023-04-24T07:54:15;1.23;;;0.10;;
38935;SDS011;66589;47.458;9.644;2023-04-24T07:56:41;1.15;;;0.10;;
38935;SDS011;66589;47.458;9.644;2023-04-24T07:59:08;0.70;;;0.10;;
38935;SDS011;66589;47.458;9.644;2023-04-24T08:01:35;0.75;;;0.03;;
38935;SDS011;66589;47.458;9.644;2023-04-24T08:04:01;1.35;;;0.00;;
38935;SDS011;66589;47.458;9.644;2023-04-24T08:06:27;0.98;;;0.10;;
38935;SDS011;66589;47.458;9.644;2023-04-24T08:08:55;4.00;;;0.05;;
38935;SDS011;66589;47.458;9.644;2023-04-24T08:11:21;1.33;;;0.10;;
38935;SDS011;66589;47.458;9.644;2023-04-24T08:13:47;3.25;;;0.13;;
38935;SDS011;66589;47.458;9.644;2023-04-24T08:16:13;0.80;;;0.10;;
38935;SDS011;66589;47.458;9.644;2023-04-24T08:18:38;2.38;;;0.22;;
38935;SDS011;66589;47.458;9.644;2023-04-24T08:21:04;2.50;;;0.40;;
38935;SDS011;66589;47.458;9.644;2023-04-24T08:23:30;0.60;;;0.30;;
38935;SDS011;66589;47.458;9.644;2023-04-24T08:25:55;1.35;;;0.20;;
38935;SDS011;66589;47.458;9.644;2023-04-24T08:28:22;0.40;;;0.03;;
38935;SDS011;66589;47.458;9.644;2023-04-24T08:30:48;0.60;;;0.10;;
38935;SDS011;66589;47.458;9.644;2023-04-24T08:33:19;0.40;;;0.10;;
38935;SDS011;66589;47.458;9.644;2023-04-24T08:35:45;0.63;;;0.10;;
38935;SDS011;66589;47.458;9.644;2023-04-24T08:38:11;0.35;;;0.10;;
38935;SDS011;66589;47.458;9.644;2023-04-24T08:40:36;3.03;;;0.20;;
38935;SDS011;66589;47.458;9.644;2023-04-24T08:43:03;0.82;;;0.10;;
38935;SDS011;66589;47.458;9.644;2023-04-24T08:45:29;0.80;;;0.10;;
38935;SDS011;66589;47.458;9.644;2023-04-24T08:47:55;1.05;;;0.15;;
38935;SDS011;66589;47.458;9.644;2023-04-24T08:50:22;1.65;;;0.20;;
38935;SDS011;66589;47.458;9.644;2023-04-24T08:52:51;1.17;;;0.10;;
38935;SDS011;66589;47.458;9.644;2023-04-24T08:55:21;1.58;;;0.10;;
38935;SDS011;66589;47.458;9.644;2023-04-24T08:57:50;2.55;;;0.20;;
38935;SDS011;66589;47.458;9.644;2023-04-24T09:00:18;0.35;;;0.03;;
38935;SDS011;66589;47.458;9.644;2023-04-24T09:02:45;2.53;;;0.30;;
38935;SDS011;66589;47.458;9.644;2023-04-24T09:05:13;1.10;;;0.10;;
38935;SDS011;66589;47.458;9.644;2023-04-24T09:07:41;2.22;;;0.32;;
38935;SDS011;66589;47.458;9.644;2023-04-24T09:10:11;1.02;;;0.13;;
38935;SDS011;66589;47.458;9.644;2023-04-24T09:12:37;0.80;;;0.10;;
38935;SDS011;66589;47.458;9.644;2023-04-24T09:15:03;0.60;;;0.10;;
38935;SDS011;66589;47.458;9.644;2023-04-24T09:17:30;1.85;;;0.10;;
38935;SDS011;66589;47.458;9.644;2023-04-24T09:19:56;1.23;;;0.20;;
38935;SDS011;66589;47.458;9.644;2023-04-24T09:22:22;0.60;;;0.10;;
38935;SDS011;66589;47.458;9.644;2023-04-24T09:24:48;1.80;;;0.30;;
38935;SDS011;66589;47.458;9.644;2023-04-24T09:27:24;2.05;;;0.35;;
38935;SDS011;66589;47.458;9.644;2023-04-24T09:29:53;1.30;;;0.10;;
38935;SDS011;66589;47.458;9.644;2023-04-24T09:32:21;1.20;;;0.10;;
38935;SDS011;66589;47.458;9.644;2023-04-24T09:34:47;3.40;;;0.77;;
38935;SDS011;66589;47.458;9.644;2023-04-24T09:37:29;1.42;;;0.20;;
38935;SDS011;66589;47.458;9.644;2023-04-24T09:40:08;1.65;;;0.15;;
38935;SDS011;66589;47.458;9.644;2023-04-24T09:42:36;2.28;;;0.20;;
38935;SDS011;66589;47.458;9.644;2023-04-24T09:45:02;1.58;;;0.30;;
38935;SDS011;66589;47.458;9.644;2023-04-24T09:47:35;1.30;;;0.20;;
38935;SDS011;66589;47.458;9.644;2023-04-24T09:50:08;2.28;;;0.10;;
38935;SDS011;66589;47.458;9.644;2023-04-24T09:52:35;0.70;;;0.10;;
38935;SDS011;66589;47.458;9.644;2023-04-24T09:55:00;3.72;;;0.25;;
38935;SDS011;66589;47.458;9.644;2023-04-24T09:57:26;1.60;;;0.10;;
38935;SDS011;66589;47.458;9.644;2023-04-24T09:59:53;2.20;;;0.20;;
38935;SDS011;66589;47.458;9.644;2023-04-24T10:02:19;1.73;;;0.20;;
38935;SDS011;66589;47.458;9.644;2023-04-24T10:04:55;1.42;;;0.20;;
38935;SDS011;66589;47.458;9.644;2023-04-24T10:07:21;1.60;;;0.20;;
38935;SDS011;66589;47.458;9.644;2023-04-24T10:09:50;0.90;;;0.20;;
38935;SDS011;66589;47.458;9.644;2023-04-24T10:12:16;1.98;;;0.32;;
38935;SDS011;66589;47.458;9.644;2023-04-24T10:14:44;2.22;;;0.20;;
38935;SDS011;66589;47.458;9.644;2023-04-24T10:17:11;3.10;;;0.20;;
38935;SDS011;66589;47.458;9.644;2023-04-24T10:19:37;1.08;;;0.28;;
38935;SDS011;66589;47.458;9.644;2023-04-24T10:22:05;2.38;;;0.50;;
38935;SDS011;66589;47.458;9.644;2023-04-24T10:24:31;3.13;;;0.40;;
38935;SDS011;66589;47.458;9.644;2023-04-24T10:27:00;2.28;;;0.30;;
38935;SDS011;66589;47.458;9.644;2023-04-24T10:29:26;2.00;;;0.43;;
38935;SDS011;66589;47.458;9.644;2023-04-24T10:31:53;1.40;;;0.20;;
38935;SDS011;66589;47.458;9.644;2023-04-24T10:34:19;2.45;;;0.38;;
38935;SDS011;66589;47.458;9.644;2023-04-24T10:36:48;4.53;;;0.30;;
38935;SDS011;66589;47.458;9.644;2023-04-24T10:39:16;3.42;;;0.30;;
38935;SDS011;66589;47.458;9.644;2023-04-24T10:41:43;3.22;;;0.50;;
38935;SDS011;66589;47.458;9.644;2023-04-24T10:44:12;2.67;;;0.68;;
38935;SDS011;66589;47.458;9.644;2023-04-24T10:46:43;3.55;;;0.40;;
38935;SDS011;66589;47.458;9.644;2023-04-24T10:49:10;2.70;;;0.40;;
38935;SDS011;66589;47.458;9.644;2023-04-24T10:51:44;3.95;;;0.38;;
38935;SDS011;66589;47.458;9.644;2023-04-24T10:54:35;3.17;;;0.80;;
38935;SDS011;66589;47.458;9.644;2023-04-24T10:59:44;1.98;;;0.30;;
38935;SDS011;66589;47.458;9.644;2023-04-24T11:02:10;1.55;;;0.30;;
38935;SDS011;66589;47.458;9.644;2023-04-24T11:04:36;2.03;;;0.43;;
38935;SDS011;66589;47.458;9.644;2023-04-24T11:07:02;2.25;;;0.30;;
38935;SDS011;66589;47.458;9.644;2023-04-24T11:09:32;3.00;;;0.50;;
38935;SDS011;66589;47.458;9.644;2023-04-24T11:17:31;5.60;;;0.52;;
38935;SDS011;66589;47.458;9.644;2023-04-24T11:20:07;1.75;;;0.28;;
38935;SDS011;66589;47.458;9.644;2023-04-24T11:22:35;1.25;;;0.35;;
38935;SDS011;66589;47.458;9.644;2023-04-24T11:25:02;1.67;;;0.45;;
38935;SDS011;66589;47.458;9.644;2023-04-24T11:27:30;4.20;;;0.50;;
38935;SDS011;66589;47.458;9.644;2023-04-24T11:32:30;2.08;;;0.50;;
38935;SDS011;66589;47.458;9.644;2023-04-24T11:35:06;3.22;;;0.50;;
38935;SDS011;66589;47.458;9.644;2023-04-24T11:37:46;5.63;;;0.60;;
38935;SDS011;66589;47.458;9.644;2023-04-24T11:40:16;4.85;;;0.60;;
38935;SDS011;66589;47.458;9.644;2023-04-24T11:42:48;4.15;;;0.60;;
38935;SDS011;66589;47.458;9.644;2023-04-24T11:45:15;7.10;;;0.70;;
38935;SDS011;66589;47.458;9.644;2023-04-24T11:47:43;7.45;;;1.08;;
38935;SDS011;66589;47.458;9.644;2023-04-24T11:50:13;4.50;;;0.35;;
38935;SDS011;66589;47.458;9.644;2023-04-24T11:52:40;2.88;;;0.32;;
38935;SDS011;66589;47.458;9.644;2023-04-24T11:55:07;2.03;;;0.40;;
38935;SDS011;66589;47.458;9.644;2023-04-24T11:57:41;1.80;;;0.40;;
38935;SDS011;66589;47.458;9.644;2023-04-24T12:00:15;5.47;;;0.40;;
38935;SDS011;66589;47.458;9.644;2023-04-24T12:02:46;4.57;;;0.50;;
38935;SDS011;66589;47.458;9.644;2023-04-24T12:07:50;2.53;;;0.50;;
38935;SDS011;66589;47.458;9.644;2023-04-24T12:10:23;3.53;;;0.40;;
38935;SDS011;66589;47.458;9.644;2023-04-24T12:12:50;3.15;;;0.40;;
38935;SDS011;66589;47.458;9.644;2023-04-24T12:15:17;2.30;;;0.47;;
38935;SDS011;66589;47.458;9.644;2023-04-24T12:17:44;3.33;;;0.40;;
38935;SDS011;66589;47.458;9.644;2023-04-24T12:20:10;4.80;;;0.80;;
38935;SDS011;66589;47.458;9.644;2023-04-24T12:22:44;4.15;;;0.38;;
38935;SDS011;66589;47.458;9.644;2023-04-24T12:25:13;4.53;;;0.50;;
38935;SDS011;66589;47.458;9.644;2023-04-24T12:27:43;3.58;;;0.50;;
38935;SDS011;66589;47.458;9.644;2023-04-24T12:30:13;2.78;;;0.30;;
38935;SDS011;66589;47.458;9.644;2023-04-24T12:32:43;2.92;;;0.70;;
38935;SDS011;66589;47.458;9.644;2023-04-24T12:35:10;2.42;;;0.47;;
38935;SDS011;66589;47.458;9.644;2023-04-24T12:37:36;2.95;;;0.40;;
38935;SDS011;66589;47.458;9.644;2023-04-24T12:40:08;3.78;;;0.30;;
38935;SDS011;66589;47.458;9.644;2023-04-24T12:42:36;1.77;;;0.30;;
38935;SDS011;66589;47.458;9.644;2023-04-24T12:45:11;3.10;;;0.60;;
38935;SDS011;66589;47.458;9.644;2023-04-24T12:47:38;4.90;;;0.40;;
38935;SDS011;66589;47.458;9.644;2023-04-24T12:50:05;4.72;;;0.60;;
38935;SDS011;66589;47.458;9.644;2023-04-24T12:52:31;4.03;;;0.50;;
38935;SDS011;66589;47.458;9.644;2023-04-24T12:54:58;5.03;;;0.52;;
38935;SDS011;66589;47.458;9.644;2023-04-24T12:57:25;1.63;;;0.40;;
38935;SDS011;66589;47.458;9.644;2023-04-24T12:59:55;3.72;;;0.50;;
38935;SDS011;66589;47.458;9.644;2023-04-24T13:02:23;3.95;;;0.40;;
38935;SDS011;66589;47.458;9.644;2023-04-24T13:04:53;1.65;;;0.30;;
38935;SDS011;66589;47.458;9.644;2023-04-24T13:07:19;2.33;;;0.30;;
38935;SDS011;66589;47.458;9.644;2023-04-24T13:09:45;2.83;;;0.70;;
38935;SDS011;66589;47.458;9.644;2023-04-24T13:12:12;2.97;;;0.40;;
38935;SDS011;66589;47.458;9.644;2023-04-24T13:14:39;5.38;;;0.40;;
38935;SDS011;66589;47.458;9.644;2023-04-24T13:17:04;2.25;;;0.32;;
38935;SDS011;66589;47.458;9.644;2023-04-24T13:19:35;3.15;;;0.40;;
38935;SDS011;66589;47.458;9.644;2023-04-24T13:22:01;2.05;;;0.30;;
38935;SDS011;66589;47.458;9.644;2023-04-24T13:24:27;4.38;;;0.95;;
38935;SDS011;66589;47.458;9.644;2023-04-24T13:26:53;3.28;;;0.40;;
38935;SDS011;66589;47.458;9.644;2023-04-24T13:29:22;3.03;;;0.50;;
38935;SDS011;66589;47.458;9.644;2023-04-24T13:31:50;3.47;;;0.40;;
38935;SDS011;66589;47.458;9.644;2023-04-24T13:34:16;2.85;;;0.40;;
38935;SDS011;66589;47.458;9.644;2023-04-24T13:36:43;2.97;;;0.40;;
38935;SDS011;66589;47.458;9.644;2023-04-24T13:39:09;1.63;;;0.30;;
38935;SDS011;66589;47.458;9.644;2023-04-24T13:41:35;2.47;;;0.40;;
38935;SDS011;66589;47.458;9.644;2023-04-24T13:44:01;1.58;;;0.40;;
38935;SDS011;66589;47.458;9.644;2023-04-24T13:46:28;4.75;;;0.65;;
38935;SDS011;66589;47.458;9.644;2023-04-24T13:48:53;2.90;;;0.35;;
38935;SDS011;66589;47.458;9.644;2023-04-24T13:51:19;4.97;;;0.40;;
38935;SDS011;66589;47.458;9.644;2023-04-24T13:53:45;1.92;;;0.30;;
38935;SDS011;66589;47.458;9.644;2023-04-24T13:56:11;2.17;;;0.30;;
38935;SDS011;66589;47.458;9.644;2023-04-24T13:58:37;3.65;;;0.40;;
38935;SDS011;66589;47.458;9.644;2023-04-24T14:01:03;2.63;;;0.38;;
38935;SDS011;66589;47.458;9.644;2023-04-24T14:03:29;2.58;;;0.40;;
38935;SDS011;66589;47.458;9.644;2023-04-24T14:05:55;2.25;;;0.40;;
38935;SDS011;66589;47.458;9.644;2023-04-24T14:08:21;2.28;;;0.30;;
38935;SDS011;66589;47.458;9.644;2023-04-24T14:10:47;2.88;;;0.30;;
38935;SDS011;66589;47.458;9.644;2023-04-24T14:13:12;4.30;;;0.40;;
38935;SDS011;66589;47.458;9.644;2023-04-24T14:15:38;2.65;;;0.45;;
38935;SDS011;66589;47.458;9.644;2023-04-24T14:18:04;2.65;;;0.40;;
38935;SDS011;66589;47.458;9.644;2023-04-24T14:20:30;2.67;;;0.30;;
38935;SDS011;66589;47.458;9.644;2023-04-24T14:22:56;1.42;;;0.30;;
38935;SDS011;66589;47.458;9.644;2023-04-24T14:25:24;3.65;;;0.40;;
38935;SDS011;66589;47.458;9.644;2023-04-24T14:27:50;4.97;;;0.40;;
38935;SDS011;66589;47.458;9.644;2023-04-24T14:30:16;3.25;;;0.40;;
38935;SDS011;66589;47.458;9.644;2023-04-24T14:32:43;2.30;;;0.40;;
38935;SDS011;66589;47.458;9.644;2023-04-24T14:35:09;2.67;;;0.40;;
38935;SDS011;66589;47.458;9.644;2023-04-24T14:37:34;2.67;;;0.40;;
38935;SDS011;66589;47.458;9.644;2023-04-24T14:40:01;2.88;;;0.50;;
38935;SDS011;66589;47.458;9.644;2023-04-24T14:42:27;1.95;;;0.30;;
38935;SDS011;66589;47.458;9.644;2023-04-24T14:44:53;5.95;;;0.50;;
38935;SDS011;66589;47.458;9.644;2023-04-24T14:47:20;2.22;;;0.40;;
38935;SDS011;66589;47.458;9.644;2023-04-24T14:49:48;2.70;;;0.40;;
38935;SDS011;66589;47.458;9.644;2023-04-24T14:52:14;1.65;;;0.40;;
38935;SDS011;66589;47.458;9.644;2023-04-24T14:54:41;2.90;;;0.60;;
38935;SDS011;66589;47.458;9.644;2023-04-24T14:57:07;4.38;;;0.60;;
38935;SDS011;66589;47.458;9.644;2023-04-24T14:59:32;2.35;;;0.40;;
38935;SDS011;66589;47.458;9.644;2023-04-24T15:01:58;5.75;;;0.73;;
38935;SDS011;66589;47.458;9.644;2023-04-24T15:04:24;2.80;;;0.50;;
38935;SDS011;66589;47.458;9.644;2023-04-24T15:06:51;5.20;;;0.70;;
38935;SDS011;66589;47.458;9.644;2023-04-24T15:09:18;2.45;;;0.40;;
38935;SDS011;66589;47.458;9.644;2023-04-24T15:11:48;3.33;;;1.00;;
38935;SDS011;66589;47.458;9.644;2023-04-24T15:14:14;2.88;;;0.40;;
38935;SDS011;66589;47.458;9.644;2023-04-24T15:16:40;3.47;;;0.40;;
38935;SDS011;66589;47.458;9.644;2023-04-24T15:19:06;3.08;;;0.47;;
38935;SDS011;66589;47.458;9.644;2023-04-24T15:21:31;4.15;;;0.80;;
38935;SDS011;66589;47.458;9.644;2023-04-24T15:23:57;3.63;;;0.40;;
38935;SDS011;66589;47.458;9.644;2023-04-24T15:26:24;3.17;;;0.40;;
38935;SDS011;66589;47.458;9.644;2023-04-24T15:28:50;3.35;;;0.40;;
38935;SDS011;66589;47.458;9.644;2023-04-24T15:31:17;1.65;;;0.50;;
38935;SDS011;66589;47.458;9.644;2023-04-24T15:33:43;2.10;;;0.32;;
38935;SDS011;66589;47.458;9.644;2023-04-24T15:36:09;4.00;;;0.60;;
38935;SDS011;66589;47.458;9.644;2023-04-24T15:38:35;3.65;;;0.30;;
38935;SDS011;66589;47.458;9.644;2023-04-24T15:41:01;1.95;;;0.50;;
38935;SDS011;66589;47.458;9.644;2023-04-24T15:43:27;2.03;;;0.30;;
38935;SDS011;66589;47.458;9.644;2023-04-24T15:45:59;3.05;;;0.32;;
38935;SDS011;66589;47.458;9.644;2023-04-24T15:48:24;2.70;;;0.30;;
38935;SDS011;66589;47.458;9.644;2023-04-24T15:50:50;1.10;;;0.30;;
38935;SDS011;66589;47.458;9.644;2023-04-24T15:53:16;2.47;;;0.22;;
38935;SDS011;66589;47.458;9.644;2023-04-24T15:55:55;2.58;;;0.20;;
38935;SDS011;66589;47.458;9.644;2023-04-24T15:58:22;2.50;;;0.43;;
38935;SDS011;66589;47.458;9.644;2023-04-24T16:00:47;4.55;;;0.40;;
38935;SDS011;66589;47.458;9.644;2023-04-24T16:03:13;1.58;;;0.43;;
38935;SDS011;66589;47.458;9.644;2023-04-24T16:05:39;2.97;;;0.70;;
38935;SDS011;66589;47.458;9.644;2023-04-24T16:08:05;6.78;;;1.10;;
38935;SDS011;66589;47.458;9.644;2023-04-24T16:10:31;3.70;;;0.60;;
38935;SDS011;66589;47.458;9.644;2023-04-24T16:12:58;3.92;;;0.88;;
38935;SDS011;66589;47.458;9.644;2023-04-24T16:15:29;7.75;;;0.40;;
38935;SDS011;66589;47.458;9.644;2023-04-24T16:17:55;6.78;;;0.80;;
38935;SDS011;66589;47.458;9.644;2023-04-24T16:20:21;3.42;;;0.47;;
38935;SDS011;66589;47.458;9.644;2023-04-24T16:22:46;3.55;;;0.45;;
38935;SDS011;66589;47.458;9.644;2023-04-24T16:25:12;3.88;;;0.80;;
38935;SDS011;66589;47.458;9.644;2023-04-24T16:27:38;5.95;;;0.70;;
38935;SDS011;66589;47.458;9.644;2023-04-24T16:30:04;3.00;;;0.68;;
38935;SDS011;66589;47.458;9.644;2023-04-24T16:32:30;2.50;;;0.55;;
38935;SDS011;66589;47.458;9.644;2023-04-24T16:34:56;7.45;;;0.70;;
38935;SDS011;66589;47.458;9.644;2023-04-24T16:37:21;3.78;;;0.63;;
38935;SDS011;66589;47.458;9.644;2023-04-24T16:39:47;2.85;;;0.60;;
38935;SDS011;66589;47.458;9.644;2023-04-24T16:42:14;3.60;;;0.43;;
38935;SDS011;66589;47.458;9.644;2023-04-24T16:44:40;2.83;;;0.50;;
38935;SDS011;66589;47.458;9.644;2023-04-24T16:47:07;4.88;;;0.80;;
38935;SDS011;66589;47.458;9.644;2023-04-24T16:49:35;3.72;;;0.73;;
38935;SDS011;66589;47.458;9.644;2023-04-24T16:52:01;2.92;;;0.60;;
38935;SDS011;66589;47.458;9.644;2023-04-24T16:54:27;3.45;;;0.60;;
38935;SDS011;66589;47.458;9.644;2023-04-24T16:56:54;3.33;;;0.70;;
38935;SDS011;66589;47.458;9.644;2023-04-24T16:59:20;4.25;;;0.90;;
38935;SDS011;66589;47.458;9.644;2023-04-24T17:01:47;4.25;;;0.90;;
38935;SDS011;66589;47.458;9.644;2023-04-24T17:04:13;2.95;;;0.50;;
38935;SDS011;66589;47.458;9.644;2023-04-24T17:06:39;2.58;;;0.75;;
38935;SDS011;66589;47.458;9.644;2023-04-24T17:09:05;3.80;;;1.20;;
38935;SDS011;66589;47.458;9.644;2023-04-24T17:11:30;5.72;;;1.70;;
38935;SDS011;66589;47.458;9.644;2023-04-24T17:13:56;17.98;;;8.02;;
38935;SDS011;66589;47.458;9.644;2023-04-24T17:16:23;6.80;;;0.80;;
38935;SDS011;66589;47.458;9.644;2023-04-24T17:18:49;3.00;;;0.60;;
38935;SDS011;66589;47.458;9.644;2023-04-24T17:21:15;2.80;;;0.60;;
38935;SDS011;66589;47.458;9.644;2023-04-24T17:23:41;3.67;;;0.55;;
38935;SDS011;66589;47.458;9.644;2023-04-24T17:26:07;3.40;;;0.50;;
38935;SDS011;66589;47.458;9.644;2023-04-24T17:28:32;1.70;;;0.40;;
38935;SDS011;66589;47.458;9.644;2023-04-24T17:30:58;2.58;;;0.40;;
38935;SDS011;66589;47.458;9.644;2023-04-24T17:33:27;3.85;;;0.45;;
38935;SDS011;66589;47.458;9.644;2023-04-24T17:38:21;3.58;;;0.60;;
38935;SDS011;66589;47.458;9.644;2023-04-24T17:40:47;3.42;;;0.65;;
38935;SDS011;66589;47.458;9.644;2023-04-24T17:43:16;1.63;;;0.60;;
38935;SDS011;66589;47.458;9.644;2023-04-24T17:45:49;2.60;;;0.60;;
38935;SDS011;66589;47.458;9.644;2023-04-24T17:48:19;2.65;;;0.75;;
38935;SDS011;66589;47.458;9.644;2023-04-24T17:50:46;3.65;;;0.77;;
38935;SDS011;66589;47.458;9.644;2023-04-24T17:53:13;2.17;;;0.40;;
38935;SDS011;66589;47.458;9.644;2023-04-24T17:55:39;7.00;;;0.55;;
38935;SDS011;66589;47.458;9.644;2023-04-24T17:58:08;3.17;;;0.77;;
38935;SDS011;66589;47.458;9.644;2023-04-24T18:00:34;3.67;;;0.63;;
38935;SDS011;66589;47.458;9.644;2023-04-24T18:03:01;2.75;;;0.45;;